sensor_id;sensor_type;location;lat;lon;timestamp;pressure;altitude;pressure_sealevel;temperature;humidity
21828;BME280;11076;47.942;11.804;2023-04-25T00:03:57;93730.38;;;5.75;95.00
21828;BME280;11076;47.942;11.804;2023-04-25T00:09:00;93731.97;;;5.83;94.76
21828;BME280;11076;47.942;11.804;2023-04-25T00:14:03;93743.22;;;5.98;94.08
21828;BME280;11076;47.942;11.804;2023-04-25T00:19:05;93733.59;;;6.10;94.06
21828;BME280;11076;47.942;11.804;2023-04-25T00:24:08;93725.63;;;6.17;93.87
21828;BME280;11076;47.942;11.804;2023-04-25T00:29:10;93722.38;;;6.15;93.43
21828;BME280;11076;47.942;11.804;2023-04-25T00:34:13;93728.28;;;6.10;94.37
21828;BME280;11076;47.942;11.804;2023-04-25T00:39:15;93726.25;;;6.19;93.63
21828;BME280;11076;47.942;11.804;2023-04-25T00:44:18;93721.53;;;6.28;93.63
21828;BME280;11076;47.942;11.804;2023-04-25T00:49:21;93724.78;;;6.30;93.16
21828;BME280;11076;47.942;11.804;2023-04-25T00:54:23;93720.69;;;6.34;93.13
21828;BME280;11076;47.942;11.804;2023-04-25T00:59:26;93712.31;;;6.37;92.92
21828;BME280;11076;47.942;11.804;2023-04-25T01:04:30;93717.84;;;6.29;92.82
21828;BME280;11076;47.942;11.804;2023-04-25T01:09:33;93716.00;;;6.23;92.87
21828;BME280;11076;47.942;11.804;2023-04-25T01:14:35;93708.28;;;6.14;93.78
21828;BME280;11076;47.942;11.804;2023-04-25T01:19:40;93710.53;;;6.04;93.99
21828;BME280;11076;47.942;11.804;2023-04-25T01:24:43;93712.19;;;5.98;94.00
21828;BME280;11076;47.942;11.804;2023-04-25T01:29:46;93711.56;;;5.96;93.76
21828;BME280;11076;47.942;11.804;2023-04-25T01:34:49;93711.59;;;6.03;93.42
21828;BME280;11076;47.942;11.804;2023-04-25T01:39:51;93693.63;;;6.05;93.11
21828;BME280;11076;47.942;11.804;2023-04-25T01:44:54;93698.50;;;6.08;93.31
21828;BME280;11076;47.942;11.804;2023-04-25T01:49:57;93693.59;;;6.12;91.70
21828;BME280;11076;47.942;11.804;2023-04-25T01:55:01;93699.53;;;6.01;90.59
21828;BME280;11076;47.942;11.804;2023-04-25T02:00:07;93693.22;;;5.82;91.06
21828;BME280;11076;47.942;11.804;2023-04-25T02:05:13;93685.88;;;5.50;90.13
21828;BME280;11076;47.942;11.804;2023-04-25T02:10:17;93691.19;;;5.30;91.11
21828;BME280;11076;47.942;11.804;2023-04-25T02:15:38;93691.19;;;5.17;91.15
21828;BME280;11076;47.942;11.804;2023-04-25T02:20:52;93686.91;;;5.16;91.49
21828;BME280;11076;47.942;11.804;2023-04-25T02:25:56;93693.00;;;5.23;92.21
21828;BME280;11076;47.942;11.804;2023-04-25T02:30:59;93685.28;;;5.42;91.65
21828;BME280;11076;47.942;11.804;2023-04-25T02:36:02;93681.00;;;5.47;91.02
21828;BME280;11076;47.942;11.804;2023-04-25T02:41:04;93678.78;;;5.37;91.10
21828;BME280;11076;47.942;11.804;2023-04-25T02:46:07;93683.25;;;5.44;91.74
21828;BME280;11076;47.942;11.804;2023-04-25T02:51:09;93689.34;;;5.64;91.27
21828;BME280;11076;47.942;11.804;2023-04-25T02:56:11;93675.25;;;5.84;90.94
21828;BME280;11076;47.942;11.804;2023-04-25T03:01:14;93678.91;;;5.89;89.87
21828;BME280;11076;47.942;11.804;2023-04-25T03:06:17;93670.97;;;5.83;89.50
21828;BME280;11076;47.942;11.804;2023-04-25T03:11:19;93669.94;;;5.84;89.02
21828;BME280;11076;47.942;11.804;2023-04-25T03:16:23;93670.56;;;5.86;89.52
21828;BME280;11076;47.942;11.804;2023-04-25T03:21:25;93663.41;;;5.93;88.79
21828;BME280;11076;47.942;11.804;2023-04-25T03:26:28;93655.06;;;5.96;88.62
21828;BME280;11076;47.942;11.804;2023-04-25T03:31:31;93656.25;;;6.00;87.78
21828;BME280;11076;47.942;11.804;2023-04-25T03:36:35;93651.31;;;6.10;87.62
21828;BME280;11076;47.942;11.804;2023-04-25T03:41:37;93670.50;;;6.12;86.79
21828;BME280;11076;47.942;11.804;2023-04-25T03:46:46;93695.66;;;6.03;87.25
21828;BME280;11076;47.942;11.804;2023-04-25T03:51:48;93685.47;;;5.73;90.98
21828;BME280;11076;47.942;11.804;2023-04-25T03:56:51;93702.00;;;5.49;93.60
21828;BME280;11076;47.942;11.804;2023-04-25T04:01:56;93709.53;;;5.12;97.33
21828;BME280;11076;47.942;11.804;2023-04-25T04:06:59;93687.28;;;4.86;100.00
21828;BME280;11076;47.942;11.804;2023-04-25T04:12:05;93669.72;;;4.85;100.00
21828;BME280;11076;47.942;11.804;2023-04-25T04:17:08;93662.41;;;4.87;100.00
21828;BME280;11076;47.942;11.804;2023-04-25T04:22:12;93639.38;;;4.81;100.00
21828;BME280;11076;47.942;11.804;2023-04-25T04:27:18;93647.94;;;4.83;100.00
21828;BME280;11076;47.942;11.804;2023-04-25T04:32:41;93650.00;;;4.88;100.00
21828;BME280;11076;47.942;11.804;2023-04-25T04:37:44;93652.41;;;4.83;100.00
21828;BME280;11076;47.942;11.804;2023-04-25T04:42:48;93646.31;;;4.82;100.00
21828;BME280;11076;47.942;11.804;2023-04-25T04:48:20;93664.28;;;4.93;100.00
21828;BME280;11076;47.942;11.804;2023-04-25T04:53:44;93694.44;;;5.06;100.00
21828;BME280;11076;47.942;11.804;2023-04-25T04:58:59;93702.59;;;5.04;100.00
21828;BME280;11076;47.942;11.804;2023-04-25T05:04:05;93675.03;;;4.85;100.00
21828;BME280;11076;47.942;11.804;2023-04-25T05:09:20;93671.56;;;4.78;100.00
21828;BME280;11076;47.942;11.804;2023-04-25T05:15:00;93670.16;;;4.89;100.00
21828;BME280;11076;47.942;11.804;2023-04-25T05:20:26;93664.06;;;5.08;100.00
21828;BME280;11076;47.942;11.804;2023-04-25T05:25:47;93665.09;;;5.67;100.00
21828;BME280;11076;47.942;11.804;2023-04-25T05:31:09;93671.00;;;5.56;100.00
21828;BME280;11076;47.942;11.804;2023-04-25T05:36:24;93658.56;;;5.50;100.00
21828;BME280;11076;47.942;11.804;2023-04-25T05:41:27;93667.69;;;5.87;100.00
21828;BME280;11076;47.942;11.804;2023-04-25T05:46:36;93672.38;;;5.78;100.00
21828;BME280;11076;47.942;11.804;2023-04-25T05:51:47;93674.47;;;5.63;100.00
21828;BME280;11076;47.942;11.804;2023-04-25T05:57:23;93674.81;;;5.87;100.00
21828;BME280;11076;47.942;11.804;2023-04-25T06:02:27;93667.06;;;5.92;100.00
21828;BME280;11076;47.942;11.804;2023-04-25T06:07:30;93657.66;;;6.61;99.82
21828;BME280;11076;47.942;11.804;2023-04-25T06:12:33;93653.41;;;7.92;94.85
21828;BME280;11076;47.942;11.804;2023-04-25T06:17:35;93650.84;;;7.35;93.73
21828;BME280;11076;47.942;11.804;2023-04-25T06:22:38;93647.28;;;8.10;93.07
21828;BME280;11076;47.942;11.804;2023-04-25T06:27:41;93638.13;;;8.25;92.48
21828;BME280;11076;47.942;11.804;2023-04-25T06:32:43;93640.59;;;8.75;93.09
21828;BME280;11076;47.942;11.804;2023-04-25T06:37:46;93639.03;;;9.28;89.64
21828;BME280;11076;47.942;11.804;2023-04-25T06:42:48;93641.69;;;9.28;89.20
21828;BME280;11076;47.942;11.804;2023-04-25T06:48:09;93637.34;;;9.15;89.06
21828;BME280;11076;47.942;11.804;2023-04-25T06:53:12;93632.63;;;9.29;84.97
21828;BME280;11076;47.942;11.804;2023-04-25T06:58:17;93641.19;;;9.85;83.65
21828;BME280;11076;47.942;11.804;2023-04-25T07:03:42;93636.97;;;10.36;79.90
21828;BME280;11076;47.942;11.804;2023-04-25T07:08:51;93633.09;;;11.13;80.19
21828;BME280;11076;47.942;11.804;2023-04-25T07:13:53;93626.78;;;11.19;78.24
21828;BME280;11076;47.942;11.804;2023-04-25T07:18:56;93631.47;;;10.54;77.53
21828;BME280;11076;47.942;11.804;2023-04-25T07:23:58;93630.50;;;9.61;79.57
21828;BME280;11076;47.942;11.804;2023-04-25T07:29:06;93622.47;;;10.08;76.95
21828;BME280;11076;47.942;11.804;2023-04-25T07:34:08;93624.88;;;10.22;76.15
21828;BME280;11076;47.942;11.804;2023-04-25T07:39:13;93632.50;;;10.53;73.02
21828;BME280;11076;47.942;11.804;2023-04-25T07:44:15;93625.28;;;10.94;75.32
21828;BME280;11076;47.942;11.804;2023-04-25T07:49:19;93635.75;;;10.55;73.57
21828;BME280;11076;47.942;11.804;2023-04-25T07:59:37;93631.63;;;10.36;70.67
21828;BME280;11076;47.942;11.804;2023-04-25T08:04:40;93639.19;;;10.68;71.86
21828;BME280;11076;47.942;11.804;2023-04-25T08:09:44;93645.84;;;11.40;68.08
21828;BME280;11076;47.942;11.804;2023-04-25T08:14:56;93642.13;;;11.41;70.17
21828;BME280;11076;47.942;11.804;2023-04-25T08:20:02;93638.38;;;11.25;66.50
21828;BME280;11076;47.942;11.804;2023-04-25T08:25:08;93640.94;;;11.03;66.70
21828;BME280;11076;47.942;11.804;2023-04-25T08:30:11;93643.38;;;11.50;63.80
21828;BME280;11076;47.942;11.804;2023-04-25T08:35:16;93639.53;;;11.46;62.65
21828;BME280;11076;47.942;11.804;2023-04-25T08:40:22;93644.22;;;10.64;64.46
21828;BME280;11076;47.942;11.804;2023-04-25T08:45:40;93637.44;;;9.98;64.61
21828;BME280;11076;47.942;11.804;2023-04-25T08:50:55;93631.09;;;10.63;63.00
21828;BME280;11076;47.942;11.804;2023-04-25T08:56:00;93632.06;;;11.48;63.00
21828;BME280;11076;47.942;11.804;2023-04-25T09:01:09;93637.19;;;11.04;58.92
21828;BME280;11076;47.942;11.804;2023-04-25T09:06:21;93657.50;;;10.47;63.05
21828;BME280;11076;47.942;11.804;2023-04-25T09:11:24;93690.31;;;9.00;69.11
21828;BME280;11076;47.942;11.804;2023-04-25T09:16:28;93710.00;;;8.06;73.12
21828;BME280;11076;47.942;11.804;2023-04-25T09:21:49;93678.97;;;8.55;74.33
21828;BME280;11076;47.942;11.804;2023-04-25T09:26:52;93673.72;;;8.98;73.25
21828;BME280;11076;47.942;11.804;2023-04-25T09:32:10;93669.72;;;9.96;72.24
21828;BME280;11076;47.942;11.804;2023-04-25T09:37:22;93671.34;;;11.42;71.55
21828;BME280;11076;47.942;11.804;2023-04-25T09:42:41;93669.25;;;11.61;67.21
21828;BME280;11076;47.942;11.804;2023-04-25T09:47:44;93668.94;;;11.74;67.70
21828;BME280;11076;47.942;11.804;2023-04-25T09:53:02;93669.41;;;12.22;65.62
21828;BME280;11076;47.942;11.804;2023-04-25T09:58:16;93673.59;;;12.35;64.00
21828;BME280;11076;47.942;11.804;2023-04-25T10:03:20;93675.16;;;12.31;65.02
21828;BME280;11076;47.942;11.804;2023-04-25T10:08:52;93670.03;;;12.29;63.45
21828;BME280;11076;47.942;11.804;2023-04-25T10:13:56;93667.22;;;12.58;60.99
21828;BME280;11076;47.942;11.804;2023-04-25T10:18:59;93653.75;;;12.97;58.68
21828;BME280;11076;47.942;11.804;2023-04-25T10:24:02;93657.91;;;13.10;57.74
21828;BME280;11076;47.942;11.804;2023-04-25T10:29:05;93642.63;;;12.66;56.70
21828;BME280;11076;47.942;11.804;2023-04-25T10:34:07;93645.13;;;13.22;57.51
21828;BME280;11076;47.942;11.804;2023-04-25T10:39:09;93646.13;;;13.70;55.54
21828;BME280;11076;47.942;11.804;2023-04-25T10:44:13;93646.56;;;14.32;52.61
21828;BME280;11076;47.942;11.804;2023-04-25T10:54:31;93643.44;;;13.65;51.46
21828;BME280;11076;47.942;11.804;2023-04-25T10:59:33;93649.22;;;13.52;52.93
21828;BME280;11076;47.942;11.804;2023-04-25T11:04:36;93650.38;;;12.85;52.93
21828;BME280;11076;47.942;11.804;2023-04-25T11:09:39;93681.28;;;11.01;62.90
21828;BME280;11076;47.942;11.804;2023-04-25T11:14:42;93679.47;;;10.90;61.38
21828;BME280;11076;47.942;11.804;2023-04-25T11:19:48;93676.88;;;11.69;62.13
21828;BME280;11076;47.942;11.804;2023-04-25T11:24:50;93686.09;;;11.45;61.27
21828;BME280;11076;47.942;11.804;2023-04-25T11:29:53;93710.03;;;10.30;68.04
21828;BME280;11076;47.942;11.804;2023-04-25T11:34:57;93717.09;;;10.12;73.33
21828;BME280;11076;47.942;11.804;2023-04-25T11:40:00;93734.50;;;9.80;74.41
21828;BME280;11076;47.942;11.804;2023-04-25T11:45:03;93740.16;;;9.29;74.83
21828;BME280;11076;47.942;11.804;2023-04-25T11:50:07;93751.75;;;9.65;75.72
21828;BME280;11076;47.942;11.804;2023-04-25T11:55:13;93774.97;;;9.76;77.34
21828;BME280;11076;47.942;11.804;2023-04-25T12:00:18;93782.13;;;8.85;81.37
21828;BME280;11076;47.942;11.804;2023-04-25T12:05:27;93784.22;;;8.65;84.96
21828;BME280;11076;47.942;11.804;2023-04-25T12:10:37;93793.97;;;8.52;86.73
21828;BME280;11076;47.942;11.804;2023-04-25T12:15:40;93791.69;;;8.56;88.25
21828;BME280;11076;47.942;11.804;2023-04-25T12:20:43;93789.09;;;8.86;86.04
21828;BME280;11076;47.942;11.804;2023-04-25T12:25:45;93788.34;;;8.79;87.49
21828;BME280;11076;47.942;11.804;2023-04-25T12:30:53;93778.09;;;9.13;88.24
21828;BME280;11076;47.942;11.804;2023-04-25T12:35:56;93779.13;;;9.30;85.21
21828;BME280;11076;47.942;11.804;2023-04-25T12:40:59;93770.31;;;9.72;85.34
21828;BME280;11076;47.942;11.804;2023-04-25T12:46:02;93758.31;;;9.51;85.17
21828;BME280;11076;47.942;11.804;2023-04-25T12:51:05;93765.19;;;10.60;80.37
21828;BME280;11076;47.942;11.804;2023-04-25T12:56:08;93750.16;;;11.34;70.37
21828;BME280;11076;47.942;11.804;2023-04-25T13:01:10;93762.28;;;11.54;74.96
21828;BME280;11076;47.942;11.804;2023-04-25T13:06:15;93760.63;;;11.82;71.40
21828;BME280;11076;47.942;11.804;2023-04-25T13:11:17;93769.19;;;11.09;73.92
21828;BME280;11076;47.942;11.804;2023-04-25T13:16:20;93783.53;;;10.09;76.71
21828;BME280;11076;47.942;11.804;2023-04-25T13:21:23;93790.72;;;10.08;76.98
21828;BME280;11076;47.942;11.804;2023-04-25T13:26:25;93790.28;;;9.69;78.81
21828;BME280;11076;47.942;11.804;2023-04-25T13:31:28;93799.34;;;9.38;81.64
21828;BME280;11076;47.942;11.804;2023-04-25T13:36:30;93809.81;;;9.21;83.17
21828;BME280;11076;47.942;11.804;2023-04-25T13:41:33;93805.91;;;9.54;83.74
21828;BME280;11076;47.942;11.804;2023-04-25T13:46:36;93802.19;;;9.55;84.10
21828;BME280;11076;47.942;11.804;2023-04-25T13:51:42;93798.06;;;9.41;82.99
21828;BME280;11076;47.942;11.804;2023-04-25T13:56:44;93815.59;;;8.63;86.77
21828;BME280;11076;47.942;11.804;2023-04-25T14:01:47;93826.31;;;8.06;90.10
21828;BME280;11076;47.942;11.804;2023-04-25T14:06:50;93826.50;;;7.79;92.36
21828;BME280;11076;47.942;11.804;2023-04-25T14:11:53;93838.97;;;8.10;92.11
21828;BME280;11076;47.942;11.804;2023-04-25T14:16:55;93841.19;;;7.88;92.32
21828;BME280;11076;47.942;11.804;2023-04-25T14:21:59;93848.94;;;8.47;92.11
21828;BME280;11076;47.942;11.804;2023-04-25T14:27:01;93850.81;;;8.65;89.72
21828;BME280;11076;47.942;11.804;2023-04-25T14:32:03;93856.00;;;8.34;91.55
21828;BME280;11076;47.942;11.804;2023-04-25T14:37:07;93850.03;;;8.07;93.61
21828;BME280;11076;47.942;11.804;2023-04-25T14:42:09;93861.41;;;7.96;95.00
21828;BME280;11076;47.942;11.804;2023-04-25T14:47:13;93872.31;;;7.88;94.49
21828;BME280;11076;47.942;11.804;2023-04-25T14:52:15;93871.44;;;8.26;92.94
21828;BME280;11076;47.942;11.804;2023-04-25T14:57:17;93878.22;;;8.22;91.05
21828;BME280;11076;47.942;11.804;2023-04-25T15:02:20;93887.91;;;8.09;92.15
21828;BME280;11076;47.942;11.804;2023-04-25T15:07:22;93879.06;;;8.47;93.32
21828;BME280;11076;47.942;11.804;2023-04-25T15:12:26;93885.50;;;8.83;89.84
21828;BME280;11076;47.942;11.804;2023-04-25T15:17:30;93883.88;;;9.01;89.48
21828;BME280;11076;47.942;11.804;2023-04-25T15:22:33;93893.97;;;9.17;86.18
21828;BME280;11076;47.942;11.804;2023-04-25T15:27:36;93904.03;;;9.15;88.36
21828;BME280;11076;47.942;11.804;2023-04-25T15:32:46;93898.97;;;8.88;86.29
21828;BME280;11076;47.942;11.804;2023-04-25T15:37:48;93908.72;;;8.58;87.82
21828;BME280;11076;47.942;11.804;2023-04-25T15:42:52;93912.28;;;8.45;88.39
21828;BME280;11076;47.942;11.804;2023-04-25T15:47:57;93920.13;;;8.01;89.62
21828;BME280;11076;47.942;11.804;2023-04-25T15:52:59;93925.16;;;7.77;91.31
21828;BME280;11076;47.942;11.804;2023-04-25T15:58:02;93932.38;;;7.70;92.01
21828;BME280;11076;47.942;11.804;2023-04-25T16:03:04;93932.53;;;7.75;92.85
21828;BME280;11076;47.942;11.804;2023-04-25T16:08:07;93934.97;;;7.84;93.14
21828;BME280;11076;47.942;11.804;2023-04-25T16:13:10;93934.13;;;7.90;94.17
21828;BME280;11076;47.942;11.804;2023-04-25T16:18:12;93942.94;;;7.90;93.84
21828;BME280;11076;47.942;11.804;2023-04-25T16:23:15;93945.97;;;7.94;94.42
21828;BME280;11076;47.942;11.804;2023-04-25T16:28:17;93953.13;;;8.00;95.17
21828;BME280;11076;47.942;11.804;2023-04-25T16:33:21;93948.75;;;8.12;94.37
21828;BME280;11076;47.942;11.804;2023-04-25T16:38:23;93950.50;;;8.25;90.81
21828;BME280;11076;47.942;11.804;2023-04-25T16:43:26;93959.03;;;8.02;90.57
21828;BME280;11076;47.942;11.804;2023-04-25T16:48:28;93965.41;;;7.56;91.91
21828;BME280;11076;47.942;11.804;2023-04-25T16:53:31;93963.19;;;7.40;92.98
21828;BME280;11076;47.942;11.804;2023-04-25T16:58:34;93974.47;;;7.28;94.11
21828;BME280;11076;47.942;11.804;2023-04-25T17:03:37;93981.47;;;7.03;97.02
21828;BME280;11076;47.942;11.804;2023-04-25T17:08:40;93990.47;;;6.95;98.33
21828;BME280;11076;47.942;11.804;2023-04-25T17:13:43;93999.47;;;6.94;98.21
21828;BME280;11076;47.942;11.804;2023-04-25T17:18:46;93999.88;;;6.84;98.66
21828;BME280;11076;47.942;11.804;2023-04-25T17:23:48;94012.56;;;6.89;98.37
21828;BME280;11076;47.942;11.804;2023-04-25T17:28:51;94021.16;;;6.77;98.22
21828;BME280;11076;47.942;11.804;2023-04-25T17:33:54;94018.28;;;6.66;99.64
21828;BME280;11076;47.942;11.804;2023-04-25T17:38:57;94023.59;;;6.66;99.85
21828;BME280;11076;47.942;11.804;2023-04-25T17:43:59;94024.81;;;6.56;100.00
21828;BME280;11076;47.942;11.804;2023-04-25T17:49:01;94042.38;;;6.51;100.00
21828;BME280;11076;47.942;11.804;2023-04-25T17:54:04;94046.84;;;6.44;100.00
21828;BME280;11076;47.942;11.804;2023-04-25T17:59:06;94044.78;;;6.32;100.00
21828;BME280;11076;47.942;11.804;2023-04-25T18:04:09;94056.19;;;6.26;100.00
21828;BME280;11076;47.942;11.804;2023-04-25T18:09:11;94058.63;;;6.14;100.00
21828;BME280;11076;47.942;11.804;2023-04-25T18:14:22;94067.63;;;6.13;100.00
21828;BME280;11076;47.942;11.804;2023-04-25T18:19:25;94081.88;;;6.12;100.00
21828;BME280;11076;47.942;11.804;2023-04-25T18:24:27;94086.81;;;6.15;100.00
21828;BME280;11076;47.942;11.804;2023-04-25T18:29:31;94090.25;;;6.09;100.00
21828;BME280;11076;47.942;11.804;2023-04-25T18:34:34;94094.94;;;6.07;100.00
21828;BME280;11076;47.942;11.804;2023-04-25T18:39:36;94091.25;;;6.02;100.00
21828;BME280;11076;47.942;11.804;2023-04-25T18:44:39;94105.47;;;5.94;100.00
21828;BME280;11076;47.942;11.804;2023-04-25T18:49:42;94113.28;;;5.95;100.00
21828;BME280;11076;47.942;11.804;2023-04-25T18:54:44;94128.38;;;5.95;100.00
21828;BME280;11076;47.942;11.804;2023-04-25T18:59:47;94132.50;;;6.04;100.00
21828;BME280;11076;47.942;11.804;2023-04-25T19:04:49;94130.88;;;6.03;100.00
21828;BME280;11076;47.942;11.804;2023-04-25T19:09:52;94139.44;;;6.05;100.00
21828;BME280;11076;47.942;11.804;2023-04-25T19:14:55;94149.03;;;6.06;100.00
21828;BME280;11076;47.942;11.804;2023-04-25T19:19:57;94152.13;;;6.10;100.00
21828;BME280;11076;47.942;11.804;2023-04-25T19:25:00;94165.75;;;6.00;100.00
21828;BME280;11076;47.942;11.804;2023-04-25T19:30:10;94179.31;;;5.84;100.00
21828;BME280;11076;47.942;11.804;2023-04-25T19:35:12;94177.28;;;5.86;100.00
21828;BME280;11076;47.942;11.804;2023-04-25T19:40:17;94178.22;;;5.71;100.00
21828;BME280;11076;47.942;11.804;2023-04-25T19:45:20;94194.19;;;5.56;100.00
21828;BME280;11076;47.942;11.804;2023-04-25T19:50:23;94196.47;;;5.31;100.00
21828;BME280;11076;47.942;11.804;2023-04-25T19:55:25;94196.31;;;4.75;100.00
21828;BME280;11076;47.942;11.804;2023-04-25T20:00:29;94197.97;;;4.76;100.00
21828;BME280;11076;47.942;11.804;2023-04-25T20:05:31;94203.63;;;4.73;100.00
21828;BME280;11076;47.942;11.804;2023-04-25T20:10:34;94200.09;;;4.87;100.00
21828;BME280;11076;47.942;11.804;2023-04-25T20:15:36;94196.97;;;4.98;100.00
21828;BME280;11076;47.942;11.804;2023-04-25T20:20:39;94190.53;;;5.08;100.00
21828;BME280;11076;47.942;11.804;2023-04-25T20:25:41;94194.31;;;5.20;100.00
21828;BME280;11076;47.942;11.804;2023-04-25T20:30:44;94201.25;;;5.21;100.00
21828;BME280;11076;47.942;11.804;2023-04-25T20:35:47;94206.53;;;5.21;100.00
21828;BME280;11076;47.942;11.804;2023-04-25T20:40:50;94186.50;;;5.12;100.00
21828;BME280;11076;47.942;11.804;2023-04-25T20:45:53;94192.16;;;5.09;100.00
21828;BME280;11076;47.942;11.804;2023-04-25T20:50:56;94185.69;;;5.11;100.00
21828;BME280;11076;47.942;11.804;2023-04-25T20:55:59;94190.28;;;5.24;100.00
21828;BME280;11076;47.942;11.804;2023-04-25T21:01:02;94186.75;;;5.17;100.00
21828;BME280;11076;47.942;11.804;2023-04-25T21:06:05;94184.47;;;5.14;100.00
21828;BME280;11076;47.942;11.804;2023-04-25T21:11:10;94193.97;;;5.02;100.00
21828;BME280;11076;47.942;11.804;2023-04-25T21:16:12;94192.94;;;5.03;100.00
21828;BME280;11076;47.942;11.804;2023-04-25T21:21:15;94189.50;;;4.87;100.00
21828;BME280;11076;47.942;11.804;2023-04-25T21:26:17;94189.91;;;4.84;100.00
21828;BME280;11076;47.942;11.804;2023-04-25T21:31:19;94186.94;;;4.72;100.00
21828;BME280;11076;47.942;11.804;2023-04-25T21:36:22;94186.97;;;4.57;100.00
21828;BME280;11076;47.942;11.804;2023-04-25T21:41:25;94185.50;;;4.55;100.00
21828;BME280;11076;47.942;11.804;2023-04-25T21:46:28;94184.53;;;4.41;100.00
21828;BME280;11076;47.942;11.804;2023-04-25T21:51:30;94185.28;;;4.35;100.00
21828;BME280;11076;47.942;11.804;2023-04-25T21:56:33;94187.19;;;4.41;100.00
21828;BME280;11076;47.942;11.804;2023-04-25T22:01:36;94198.06;;;4.46;100.00
21828;BME280;11076;47.942;11.804;2023-04-25T22:06:38;94198.22;;;4.60;100.00
21828;BME280;11076;47.942;11.804;2023-04-25T22:11:41;94187.22;;;4.63;100.00
21828;BME280;11076;47.942;11.804;2023-04-25T22:16:44;94191.25;;;4.58;100.00
21828;BME280;11076;47.942;11.804;2023-04-25T22:21:46;94187.28;;;4.33;100.00
21828;BME280;11076;47.942;11.804;2023-04-25T22:26:49;94197.28;;;4.16;100.00
21828;BME280;11076;47.942;11.804;2023-04-25T22:31:52;94214.31;;;4.13;100.00
21828;BME280;11076;47.942;11.804;2023-04-25T22:36:54;94200.63;;;4.25;100.00
21828;BME280;11076;47.942;11.804;2023-04-25T22:41:57;94212.66;;;4.42;100.00
21828;BME280;11076;47.942;11.804;2023-04-25T22:46:59;94208.53;;;4.54;100.00
21828;BME280;11076;47.942;11.804;2023-04-25T22:52:02;94212.00;;;4.55;100.00
21828;BME280;11076;47.942;11.804;2023-04-25T22:57:08;94215.28;;;4.57;100.00
21828;BME280;11076;47.942;11.804;2023-04-25T23:02:10;94221.75;;;4.54;100.00
21828;BME280;11076;47.942;11.804;2023-04-25T23:07:14;94223.78;;;4.52;100.00
21828;BME280;11076;47.942;11.804;2023-04-25T23:12:17;94217.41;;;4.47;100.00
21828;BME280;11076;47.942;11.804;2023-04-25T23:17:20;94226.88;;;4.41;100.00
21828;BME280;11076;47.942;11.804;2023-04-25T23:22:22;94223.31;;;4.49;100.00
21828;BME280;11076;47.942;11.804;2023-04-25T23:27:25;94226.38;;;4.67;100.00
21828;BME280;11076;47.942;11.804;2023-04-25T23:32:27;94225.69;;;4.58;100.00
21828;BME280;11076;47.942;11.804;2023-04-25T23:37:37;94226.66;;;4.57;100.00
21828;BME280;11076;47.942;11.804;2023-04-25T23:42:40;94227.59;;;4.65;100.00
21828;BME280;11076;47.942;11.804;2023-04-25T23:47:43;94232.63;;;4.60;100.00
21828;BME280;11076;47.942;11.804;2023-04-25T23:52:45;94219.59;;;4.43;100.00
21828;BME280;11076;47.942;11.804;2023-04-25T23:57:47;94217.69;;;4.37;100.00
